Time,TemperatureF,DewpointF,PressureIn,WindDirection,WindDirectionDegrees,WindSpeedMPH,WindSpeedGustMPH,Humidity,HourlyPrecipIn,Conditions,Clouds,dailyrainin,SolarRadiationWatts/m^2,SoftwareType,DateUTC
2013-04-25 00:01:00,70.0,43.0,-100.00,ESE,115,9.0,12.0,38,0.00,,,0.00,1.000000,,2013-04-25 07:01:00,
2013-04-25 00:11:00,70.0,43.0,-100.00,ESE,115,9.0,12.0,38,0.00,,,0.00,1.000000,,2013-04-25 07:11:00,
2013-04-25 00:42:00,69.0,46.0,-100.00,ESE,117,12.0,18.0,43,0.00,,,0.00,1.000000,,2013-04-25 07:42:00,
2013-04-25 00:52:00,69.0,46.0,-100.00,ESE,117,12.0,18.0,43,0.00,,,0.00,1.000000,,2013-04-25 07:52:00,
2013-04-25 01:01:00,69.0,46.0,-100.00,ESE,117,12.0,18.0,43,0.00,,,0.00,1.000000,,2013-04-25 08:01:00,
2013-04-25 01:11:00,69.0,46.0,-100.00,ESE,117,12.0,18.0,43,0.00,,,0.00,1.000000,,2013-04-25 08:11:00,
2013-04-25 01:42:00,67.0,46.0,-100.00,SE,128,0.0,18.0,47,0.00,,,0.00,1.000000,,2013-04-25 08:42:00,
2013-04-25 01:52:00,67.0,46.0,-100.00,SE,128,0.0,18.0,47,0.00,,,0.00,1.000000,,2013-04-25 08:52:00,
2013-04-25 02:01:00,67.0,46.0,-100.00,SE,128,0.0,18.0,47,0.00,,,0.00,1.000000,,2013-04-25 09:01:00,
2013-04-25 02:11:00,67.0,46.0,-100.00,SE,128,0.0,18.0,47,0.00,,,0.00,1.000000,,2013-04-25 09:11:00,
2013-04-25 02:42:00,66.0,47.0,-100.00,SSE,167,0.0,0.0,51,0.00,,,0.00,1.000000,,2013-04-25 09:42:00,
2013-04-25 02:52:00,66.0,47.0,-100.00,SSE,167,0.0,0.0,51,0.00,,,0.00,1.000000,,2013-04-25 09:52:00,
2013-04-25 03:02:00,66.0,47.0,-100.00,SSE,167,0.0,0.0,51,0.00,,,0.00,1.000000,,2013-04-25 10:02:00,
2013-04-25 03:12:00,66.0,47.0,-100.00,SSE,167,0.0,0.0,51,0.00,,,0.00,1.000000,,2013-04-25 10:12:00,
2013-04-25 03:42:00,63.0,46.0,-100.00,NNW,344,7.0,11.0,54,0.00,,,0.00,1.000000,,2013-04-25 10:42:00,
2013-04-25 03:53:00,63.0,46.0,-100.00,NNW,344,7.0,11.0,54,0.00,,,0.00,1.000000,,2013-04-25 10:53:00,
2013-04-25 04:02:00,63.0,46.0,-100.00,NNW,344,7.0,11.0,54,0.00,,,0.00,1.000000,,2013-04-25 11:02:00,
2013-04-25 04:12:00,63.0,46.0,-100.00,NNW,344,7.0,11.0,54,0.00,,,0.00,1.000000,,2013-04-25 11:12:00,
2013-04-25 04:42:00,63.0,42.0,-100.00,NNE,20,7.0,9.0,47,0.00,,,0.00,1.000000,,2013-04-25 11:42:00,
2013-04-25 04:52:00,63.0,42.0,-100.00,NNE,20,7.0,9.0,47,0.00,,,0.00,1.000000,,2013-04-25 11:52:00,
2013-04-25 05:01:00,63.0,42.0,-100.00,NNE,20,7.0,9.0,47,0.00,,,0.00,1.000000,,2013-04-25 12:01:00,
2013-04-25 05:12:00,63.0,42.0,-100.00,NNE,20,7.0,9.0,47,0.00,,,0.00,1.000000,,2013-04-25 12:12:00,
2013-04-25 05:42:00,62.0,42.0,-100.00,North,352,6.0,13.0,48,0.00,,,0.00,1.000000,,2013-04-25 12:42:00,
2013-04-25 05:52:00,62.0,42.0,-100.00,North,352,6.0,13.0,48,0.00,,,0.00,1.000000,,2013-04-25 12:52:00,
2013-04-25 06:02:00,62.0,42.0,-100.00,North,352,6.0,13.0,48,0.00,,,0.00,1.000000,,2013-04-25 13:02:00,
2013-04-25 06:11:00,62.0,42.0,-100.00,North,352,6.0,13.0,48,0.00,,,0.00,1.000000,,2013-04-25 13:11:00,
2013-04-25 06:42:00,61.0,40.0,-100.00,NW,313,6.0,12.0,45,0.00,,,-99.99,4.000000,,2013-04-25 13:42:00,
2013-04-25 06:52:00,61.0,40.0,-100.00,NW,313,6.0,12.0,45,0.00,,,-99.99,4.000000,,2013-04-25 13:52:00,
2013-04-25 07:01:00,61.0,40.0,-100.00,NW,313,6.0,12.0,45,0.00,,,-99.99,4.000000,,2013-04-25 14:01:00,
2013-04-25 07:11:00,61.0,40.0,-100.00,NW,313,6.0,12.0,45,0.00,,,-99.99,4.000000,,2013-04-25 14:11:00,
2013-04-25 07:42:00,62.0,41.0,-100.00,WNW,292,4.0,10.0,46,0.00,,,0.00,119.000000,,2013-04-25 14:42:00,
2013-04-25 07:52:00,62.0,41.0,-100.00,WNW,292,4.0,10.0,46,0.00,,,0.00,119.000000,,2013-04-25 14:52:00,
2013-04-25 08:02:00,62.0,41.0,-100.00,WNW,292,4.0,10.0,46,0.00,,,0.00,119.000000,,2013-04-25 15:02:00,
2013-04-25 08:11:00,62.0,41.0,-100.00,WNW,292,4.0,10.0,46,0.00,,,0.00,119.000000,,2013-04-25 15:11:00,
2013-04-25 08:42:00,65.0,41.0,-100.00,WSW,241,6.0,9.0,42,0.00,,,0.00,332.000000,,2013-04-25 15:42:00,
2013-04-25 08:53:00,65.0,41.0,-100.00,WSW,241,6.0,9.0,42,0.00,,,0.00,332.000000,,2013-04-25 15:53:00,
2013-04-25 09:02:00,65.0,41.0,-100.00,WSW,241,6.0,9.0,42,0.00,,,0.00,332.000000,,2013-04-25 16:02:00,
2013-04-25 09:13:00,65.0,41.0,-100.00,WSW,241,6.0,9.0,42,0.00,,,0.00,332.000000,,2013-04-25 16:13:00,
2013-04-25 09:43:00,68.0,41.0,-100.00,WSW,245,7.0,13.0,38,0.00,,,0.00,552.000000,,2013-04-25 16:43:00,
2013-04-25 09:52:00,68.0,41.0,-100.00,WSW,245,7.0,13.0,38,0.00,,,0.00,552.000000,,2013-04-25 16:52:00,
2013-04-25 10:02:00,68.0,41.0,-100.00,WSW,245,7.0,13.0,38,0.00,,,0.00,552.000000,,2013-04-25 17:02:00,
2013-04-25 10:11:00,68.0,41.0,-100.00,WSW,245,7.0,13.0,38,0.00,,,0.00,552.000000,,2013-04-25 17:11:00,
2013-04-25 10:42:00,73.0,42.0,-100.00,West,264,12.0,17.0,33,0.00,,,0.00,747.000000,,2013-04-25 17:42:00,
2013-04-25 10:53:00,73.0,42.0,-100.00,West,264,12.0,17.0,33,0.00,,,0.00,747.000000,,2013-04-25 17:53:00,
2013-04-25 11:01:00,73.0,42.0,-100.00,West,264,12.0,17.0,33,0.00,,,0.00,747.000000,,2013-04-25 18:01:00,
2013-04-25 11:11:00,73.0,42.0,-100.00,West,264,12.0,17.0,33,0.00,,,0.00,747.000000,,2013-04-25 18:11:00,
2013-04-25 11:43:00,75.0,41.0,-100.00,WSW,256,11.0,18.0,30,0.00,,,0.00,900.000000,,2013-04-25 18:43:00,
2013-04-25 11:53:00,75.0,41.0,-100.00,WSW,256,11.0,18.0,30,0.00,,,0.00,900.000000,,2013-04-25 18:53:00,
2013-04-25 12:01:00,75.0,41.0,-100.00,WSW,256,11.0,18.0,30,0.00,,,0.00,900.000000,,2013-04-25 19:01:00,
2013-04-25 12:12:00,75.0,41.0,-100.00,WSW,256,11.0,18.0,30,0.00,,,0.00,900.000000,,2013-04-25 19:12:00,
2013-04-25 12:42:00,77.0,42.0,-100.00,WSW,253,9.0,17.0,29,0.00,,,0.00,995.000000,,2013-04-25 19:42:00,
2013-04-25 12:52:00,77.0,42.0,-100.00,WSW,253,9.0,17.0,29,0.00,,,0.00,995.000000,,2013-04-25 19:52:00,
2013-04-25 13:01:00,77.0,42.0,-100.00,WSW,253,9.0,17.0,29,0.00,,,0.00,995.000000,,2013-04-25 20:01:00,
2013-04-25 13:11:00,77.0,42.0,-100.00,WSW,253,9.0,17.0,29,0.00,,,0.00,995.000000,,2013-04-25 20:11:00,
2013-04-25 13:43:00,79.0,42.0,-100.00,WSW,247,9.0,17.0,27,0.00,,,0.00,1020.000000,,2013-04-25 20:43:00,
2013-04-25 13:52:00,79.0,42.0,-100.00,WSW,247,9.0,17.0,27,0.00,,,0.00,1020.000000,,2013-04-25 20:52:00,
2013-04-25 14:01:00,79.0,42.0,-100.00,WSW,247,9.0,17.0,27,0.00,,,0.00,1020.000000,,2013-04-25 21:01:00,
2013-04-25 14:11:00,79.0,42.0,-100.00,WSW,247,9.0,17.0,27,0.00,,,0.00,1020.000000,,2013-04-25 21:11:00,
2013-04-25 14:42:00,80.0,41.0,-100.00,SSW,205,7.0,16.0,25,0.00,,,0.00,981.000000,,2013-04-25 21:42:00,
2013-04-25 14:53:00,80.0,41.0,-100.00,SSW,205,7.0,16.0,25,0.00,,,0.00,981.000000,,2013-04-25 21:53:00,
2013-04-25 15:02:00,80.0,41.0,-100.00,SSW,205,7.0,16.0,25,0.00,,,0.00,981.000000,,2013-04-25 22:02:00,
2013-04-25 15:12:00,80.0,41.0,-100.00,SSW,205,7.0,16.0,25,0.00,,,0.00,981.000000,,2013-04-25 22:12:00,
2013-04-25 15:42:00,81.0,42.0,-100.00,SSW,201,9.0,18.0,25,0.00,,,0.00,874.000000,,2013-04-25 22:42:00,
2013-04-25 15:53:00,81.0,42.0,-100.00,SSW,201,9.0,18.0,25,0.00,,,0.00,874.000000,,2013-04-25 22:53:00,
2013-04-25 16:02:00,81.0,42.0,-100.00,SSW,201,9.0,18.0,25,0.00,,,0.00,874.000000,,2013-04-25 23:02:00,
2013-04-25 16:12:00,81.0,42.0,-100.00,SSW,201,9.0,18.0,25,0.00,,,0.00,874.000000,,2013-04-25 23:12:00,
2013-04-25 16:42:00,82.0,42.0,-100.00,SSW,213,8.0,15.0,24,0.00,,,0.00,706.000000,,2013-04-25 23:42:00,
2013-04-25 16:52:00,82.0,42.0,-100.00,SSW,213,8.0,15.0,24,0.00,,,0.00,706.000000,,2013-04-25 23:52:00,
2013-04-25 17:01:00,82.0,42.0,-100.00,SSW,213,8.0,15.0,24,0.00,,,0.00,706.000000,,2013-04-26 00:01:00,
2013-04-25 17:11:00,82.0,42.0,-100.00,SSW,213,8.0,15.0,24,0.00,,,0.00,706.000000,,2013-04-26 00:11:00,
2013-04-25 17:42:00,82.0,39.0,-100.00,SSW,207,10.0,14.0,22,0.00,,,0.00,500.000000,,2013-04-26 00:42:00,
2013-04-25 17:52:00,82.0,39.0,-100.00,SSW,207,10.0,14.0,22,0.00,,,0.00,500.000000,,2013-04-26 00:52:00,
2013-04-25 18:01:00,82.0,39.0,-100.00,SSW,207,10.0,14.0,22,0.00,,,0.00,500.000000,,2013-04-26 01:01:00,
2013-04-25 18:11:00,82.0,39.0,-100.00,SSW,207,10.0,14.0,22,0.00,,,0.00,500.000000,,2013-04-26 01:11:00,
2013-04-25 18:42:00,82.0,42.0,-100.00,SSW,210,9.0,13.0,24,0.00,,,0.00,275.000000,,2013-04-26 01:42:00,
2013-04-25 18:52:00,82.0,42.0,-100.00,SSW,210,9.0,13.0,24,0.00,,,0.00,275.000000,,2013-04-26 01:52:00,
2013-04-25 19:01:00,82.0,42.0,-100.00,SSW,210,9.0,13.0,24,0.00,,,0.00,275.000000,,2013-04-26 02:01:00,
2013-04-25 19:11:00,82.0,42.0,-100.00,SSW,210,9.0,13.0,24,0.00,,,0.00,275.000000,,2013-04-26 02:11:00,
2013-04-25 19:42:00,79.0,40.0,-100.00,South,176,6.0,10.0,25,0.00,,,0.00,73.000000,,2013-04-26 02:42:00,
2013-04-25 19:52:00,79.0,40.0,-100.00,South,176,6.0,10.0,25,0.00,,,0.00,73.000000,,2013-04-26 02:52:00,
2013-04-25 20:01:00,79.0,40.0,-100.00,South,176,6.0,10.0,25,0.00,,,0.00,73.000000,,2013-04-26 03:01:00,
2013-04-25 20:11:00,79.0,40.0,-100.00,South,176,6.0,10.0,25,0.00,,,0.00,73.000000,,2013-04-26 03:11:00,
2013-04-25 20:43:00,76.0,40.0,-100.00,South,187,6.0,10.0,27,0.00,,,0.00,2.000000,,2013-04-26 03:43:00,
2013-04-25 20:53:00,76.0,40.0,-100.00,South,187,6.0,10.0,27,0.00,,,0.00,2.000000,,2013-04-26 03:53:00,
2013-04-25 21:02:00,76.0,40.0,-100.00,South,187,6.0,10.0,27,0.00,,,0.00,2.000000,,2013-04-26 04:02:00,
2013-04-25 21:12:00,76.0,40.0,-100.00,South,187,6.0,10.0,27,0.00,,,0.00,2.000000,,2013-04-26 04:12:00,
2013-04-25 21:43:00,74.0,41.0,-100.00,South,188,9.0,18.0,30,0.00,,,0.00,1.000000,,2013-04-26 04:43:00,
2013-04-25 21:53:00,74.0,41.0,-100.00,South,188,9.0,18.0,30,0.00,,,0.00,1.000000,,2013-04-26 04:53:00,
2013-04-25 22:02:00,74.0,41.0,-100.00,South,188,9.0,18.0,30,0.00,,,0.00,1.000000,,2013-04-26 05:02:00,
2013-04-25 22:12:00,74.0,41.0,-100.00,South,188,9.0,18.0,30,0.00,,,0.00,1.000000,,2013-04-26 05:12:00,
2013-04-25 22:42:00,70.0,45.0,-100.00,South,174,9.0,13.0,40,0.00,,,0.00,1.000000,,2013-04-26 05:42:00,
2013-04-25 22:52:00,70.0,45.0,-100.00,South,174,9.0,13.0,40,0.00,,,0.00,1.000000,,2013-04-26 05:52:00,
2013-04-25 23:02:00,70.0,45.0,-100.00,South,174,9.0,13.0,40,0.00,,,0.00,1.000000,,2013-04-26 06:02:00,
2013-04-25 23:11:00,70.0,45.0,-100.00,South,174,9.0,13.0,40,0.00,,,0.00,1.000000,,2013-04-26 06:11:00,
2013-04-25 23:42:00,67.0,49.0,-100.00,South,181,7.0,14.0,53,0.00,,,0.00,1.000000,,2013-04-26 06:42:00,
2013-04-25 23:52:00,67.0,49.0,-100.00,South,181,7.0,14.0,53,0.00,,,0.00,1.000000,,2013-04-26 06:52:00,